Time;durP1;ratioP1;P1;durP2;ratioP2;P2;SDS_P1;SDS_P2;PMS_P1;PMS_P2;Temp;Humidity;BMP_temperature;BMP_pressure;BME280_temperature;BME280_humidity;BME280_pressure;Samples;Min_cycle;Max_cycle;Signal;HPM_P1;HPM_P2
2022/01/22 00:00:16;;;;;;;7.60;4.00;;;;;;;-2.02;82.54;98344.80;108921;1280;22443;-58
2022/01/22 00:02:44;;;;;;;9.80;5.30;;;;;;;-2.03;82.52;98343.94;108875;1279;139199;-58
2022/01/22 00:05:12;;;;;;;14.40;4.80;;;;;;;-2.04;82.73;98346.39;108993;1278;22429;-58
2022/01/22 00:07:40;;;;;;;6.60;4.70;;;;;;;-2.06;82.84;98345.94;108966;1279;22389;-58
2022/01/22 00:10:14;;;;;;;7.10;4.30;;;;;;;-2.07;82.89;98347.82;108893;1280;138443;-58
2022/01/22 00:12:56;;;;;;;7.90;4.40;;;;;;;-2.07;82.92;98347.41;109023;1278;22498;-58
2022/01/22 00:15:24;;;;;;;9.50;4.30;;;;;;;-2.10;82.87;98350.08;108858;1278;140201;-58
2022/01/22 00:17:52;;;;;;;11.40;4.90;;;;;;;-2.12;83.05;98354.01;109031;1278;22548;-58
2022/01/22 00:20:22;;;;;;;10.80;5.40;;;;;;;-2.12;83.25;98358.81;108907;1279;138465;-58
2022/01/22 00:22:50;;;;;;;9.10;4.90;;;;;;;-2.11;83.51;98362.14;108954;1279;22461;-57
2022/01/22 00:25:20;;;;;;;8.20;4.10;;;;;;;-2.11;83.46;98359.23;108903;1280;23562;-57
2022/01/22 00:27:49;;;;;;;8.00;4.20;;;;;;;-2.09;83.63;98355.83;108869;1280;139363;-57
2022/01/22 00:30:23;;;;;;;7.40;3.70;;;;;;;-2.08;83.66;98359.45;108895;1279;22478;-58
2022/01/22 00:32:51;;;;;;;8.10;4.70;;;;;;;-2.08;83.79;98365.39;108889;1278;138497;-58
2022/01/22 00:35:20;;;;;;;6.70;4.20;;;;;;;-2.06;83.97;98365.92;108915;1280;22525;-58
2022/01/22 00:37:49;;;;;;;11.00;4.70;;;;;;;-2.03;83.99;98364.82;108943;1278;22539;-58
2022/01/22 00:40:17;;;;;;;7.50;4.50;;;;;;;-2.03;84.08;98359.55;108935;1280;138723;-58
2022/01/22 00:42:46;;;;;;;8.60;4.10;;;;;;;-2.03;84.05;98354.59;108923;1279;22454;-58
2022/01/22 00:45:14;;;;;;;7.40;3.90;;;;;;;-1.97;83.87;98361.27;108872;1278;138777;-58
2022/01/22 00:47:42;;;;;;;8.10;4.70;;;;;;;-1.96;83.84;98359.02;108786;1280;22613;-57
2022/01/22 00:50:12;;;;;;;7.60;4.50;;;;;;;-1.95;83.95;98361.48;108985;1278;23269;-58
2022/01/22 00:52:40;;;;;;;20.00;5.60;;;;;;;-1.95;83.95;98359.43;108767;1280;138466;-58
2022/01/22 00:55:08;;;;;;;9.80;4.90;;;;;;;-1.96;83.90;98360.46;108922;1280;22543;-58
2022/01/22 00:57:36;;;;;;;8.90;4.90;;;;;;;-1.96;83.91;98361.15;108790;1280;138545;-57
2022/01/22 01:00:08;;;;;;;6.40;3.90;;;;;;;-1.95;84.04;98363.66;108978;1279;23613;-57
2022/01/22 01:02:36;;;;;;;6.40;4.20;;;;;;;-1.94;83.75;98360.66;108905;1278;139912;-58
2022/01/22 01:05:06;;;;;;;6.20;4.10;;;;;;;-1.93;84.01;98360.05;108942;1279;22529;-58
2022/01/22 01:07:34;;;;;;;6.30;3.80;;;;;;;-1.94;83.87;98361.40;108988;1278;23351;-58
2022/01/22 01:10:04;;;;;;;6.20;3.10;;;;;;;-1.96;83.80;98359.63;108872;1279;138126;-58
2022/01/22 01:12:32;;;;;;;10.70;4.00;;;;;;;-1.98;83.86;98355.94;108973;1279;22528;-58
2022/01/22 01:15:21;;;;;;;9.50;5.00;;;;;;;-2.00;83.85;98356.46;108827;1280;138507;-58
2022/01/22 01:34:29;;;;;;;7.20;3.30;;;;;;;-1.99;83.82;98369.94;108824;1279;137155;-58
2022/01/22 01:36:57;;;;;;;6.60;4.40;;;;;;;-1.99;83.72;98369.93;108873;1280;23246;-58
2022/01/22 01:39:31;;;;;;;7.20;3.70;;;;;;;-1.98;83.83;98372.44;108722;1280;137947;-58
2022/01/22 01:42:05;;;;;;;6.50;3.60;;;;;;;-1.98;83.74;98377.90;108890;1280;22562;-58
2022/01/22 01:44:35;;;;;;;5.80;3.50;;;;;;;-1.97;83.73;98376.55;108903;1280;22465;-58
2022/01/22 01:47:29;;;;;;;5.50;3.40;;;;;;;-1.97;83.54;98370.84;108851;1278;22529;-58
2022/01/22 01:49:57;;;;;;;7.60;3.70;;;;;;;-1.98;83.62;98375.97;108723;1280;22568;-58
2022/01/22 01:52:48;;;;;;;6.40;3.80;;;;;;;-1.99;83.55;98373.14;108776;1279;138316;-58
2022/01/22 01:55:32;;;;;;;6.80;3.50;;;;;;;-2.00;83.50;98374.69;108807;1280;23036;-58
2022/01/22 01:58:00;;;;;;;7.90;4.10;;;;;;;-1.99;83.68;98380.57;109023;1276;138092;-58
2022/01/22 02:00:30;;;;;;;6.50;3.50;;;;;;;-1.98;83.87;98379.33;109089;1276;22984;-58
2022/01/22 02:03:00;;;;;;;7.00;3.50;;;;;;;-1.97;83.79;98381.77;109129;1276;22489;-58
2022/01/22 02:05:36;;;;;;;8.20;4.30;;;;;;;-1.98;83.71;98384.55;109063;1276;138752;-58
2022/01/22 02:08:05;;;;;;;8.70;4.60;;;;;;;-1.99;83.49;98382.13;109215;1276;22495;-58
2022/01/22 02:10:53;;;;;;;9.30;3.90;;;;;;;-1.99;83.69;98374.65;109087;1274;137825;-58
2022/01/22 02:13:48;;;;;;;8.00;3.90;;;;;;;-2.00;83.59;98377.08;109306;1275;22606;-59
2022/01/22 02:24:52;;;;;;;5.40;2.80;;;;;;;-2.04;83.39;98379.85;109189;1276;23142;-57
2022/01/22 02:27:21;;;;;;;10.70;3.70;;;;;;;-2.06;83.53;98373.06;109172;1275;139842;-58
2022/01/22 02:29:50;;;;;;;8.30;3.30;;;;;;;-2.06;83.50;98380.54;109192;1276;22483;-57
2022/01/22 02:35:56;;;;;;;12.60;3.50;;;;;;;-2.03;83.67;98377.47;109024;1277;137672;-58
2022/01/22 02:38:41;;;;;;;7.80;3.80;;;;;;;-2.03;83.65;98379.56;109275;1274;22449;-58
2022/01/22 02:41:14;;;;;;;4.20;2.80;;;;;;;-2.04;83.62;98382.89;109195;1275;137059;-58
2022/01/22 02:43:42;;;;;;;5.60;3.20;;;;;;;-2.05;83.65;98387.48;109069;1276;22455;-58
2022/01/22 02:46:13;;;;;;;9.20;3.40;;;;;;;-2.06;83.73;98389.86;109011;1276;139220;-58
2022/01/22 02:48:41;;;;;;;7.70;3.80;;;;;;;-2.08;83.60;98396.67;109237;1276;22469;-58
2022/01/22 02:51:09;;;;;;;9.50;3.50;;;;;;;-2.09;83.41;98395.52;109029;1276;22536;-58
2022/01/22 02:53:38;;;;;;;10.30;3.10;;;;;;;-2.10;83.34;98394.33;109066;1276;139840;-58
2022/01/22 02:56:07;;;;;;;8.80;3.20;;;;;;;-2.09;83.40;98399.02;109101;1277;22244;-58
2022/01/22 02:58:36;;;;;;;7.90;3.00;;;;;;;-2.09;83.43;98398.59;109123;1276;138444;-58
2022/01/22 03:01:04;;;;;;;9.50;3.00;;;;;;;-2.07;83.38;98401.64;109147;1276;22491;-58
2022/01/22 03:03:32;;;;;;;6.70;2.80;;;;;;;-2.06;83.38;98404.19;108980;1277;139117;-57
2022/01/22 03:06:08;;;;;;;11.20;5.60;;;;;;;-2.05;83.45;98403.82;109107;1276;23119;-58
2022/01/22 03:08:39;;;;;;;7.30;3.60;;;;;;;-2.04;83.41;98403.66;109249;1276;23172;-57
2022/01/22 03:11:17;;;;;;;6.90;3.40;;;;;;;-2.05;83.31;98404.52;108934;1277;139576;-58
2022/01/22 03:20:20;;;;;;;10.40;3.00;;;;;;;-2.03;83.10;98405.89;108527;1282;22592;-58
2022/01/22 03:27:34;;;;;;;7.20;3.00;;;;;;;-2.02;83.14;98402.77;108460;1282;137742;-57
2022/01/22 03:30:04;;;;;;;6.50;3.10;;;;;;;-2.01;82.92;98405.90;108428;1282;22512;-57
2022/01/22 03:32:39;;;;;;;5.70;3.20;;;;;;;-2.00;83.08;98405.86;108482;1282;22547;-58
2022/01/22 03:35:11;;;;;;;9.10;3.80;;;;;;;-2.01;82.96;98407.86;108329;1282;139009;-57
2022/01/22 03:37:40;;;;;;;6.30;3.00;;;;;;;-2.01;82.97;98406.27;108379;1283;22630;-58
2022/01/22 03:40:09;;;;;;;9.20;3.20;;;;;;;-2.01;82.88;98404.83;108355;1282;139156;-63
2022/01/22 03:42:38;;;;;;;6.10;3.10;;;;;;;-2.01;82.83;98408.77;108374;1284;22500;-63
2022/01/22 03:45:07;;;;;;;5.20;3.10;;;;;;;-1.99;82.65;98408.94;108552;1282;22555;-62
2022/01/22 03:47:36;;;;;;;7.10;3.40;;;;;;;-1.99;82.75;98408.16;108300;1282;139229;-61
2022/01/22 03:50:05;;;;;;;6.90;3.90;;;;;;;-1.98;82.79;98416.58;108368;1282;22490;-62
2022/01/22 03:52:33;;;;;;;6.00;2.60;;;;;;;-1.97;82.79;98416.08;108369;1282;138097;-61
2022/01/22 03:55:01;;;;;;;6.10;2.90;;;;;;;-1.96;82.61;98419.98;109208;1276;22440;-61
2022/01/22 03:57:59;;;;;;;6.00;3.00;;;;;;;-1.94;82.50;98418.89;108874;1276;139595;-61
2022/01/22 04:00:27;;;;;;;6.90;3.20;;;;;;;-1.93;82.55;98427.02;109274;1275;22387;-60
2022/01/22 04:05:26;;;;;;;6.70;3.50;;;;;;;-1.93;82.30;98432.48;109149;1276;138182;-62
2022/01/22 04:10:51;;;;;;;7.70;3.30;;;;;;;-1.97;82.03;98432.35;108967;1277;138471;-62
2022/01/22 04:13:22;;;;;;;7.90;3.40;;;;;;;-1.96;81.98;98436.99;109186;1276;22296;-62
2022/01/22 04:15:50;;;;;;;6.40;3.00;;;;;;;-1.97;81.93;98442.54;109093;1276;138040;-62
2022/01/22 04:26:53;;;;;;;15.30;6.60;;;;;;;-2.06;81.45;98449.76;109311;1276;22480;-62
2022/01/22 04:29:22;;;;;;;14.80;6.30;;;;;;;-2.05;81.27;98452.96;109086;1276;138176;-63
2022/01/22 04:31:50;;;;;;;13.70;5.70;;;;;;;-2.05;81.57;98450.02;109249;1276;23019;-63
2022/01/22 04:34:19;;;;;;;12.70;6.20;;;;;;;-2.02;81.63;98453.25;109143;1275;139093;-62
2022/01/22 04:36:47;;;;;;;24.60;9.50;;;;;;;-2.00;81.62;98453.73;109264;1275;23195;-62
2022/01/22 04:39:15;;;;;;;20.30;8.20;;;;;;;-2.03;81.36;98450.08;109180;1276;22507;-57
2022/01/22 04:41:43;;;;;;;18.30;8.40;;;;;;;-2.02;81.35;98450.48;109142;1274;137254;-57
2022/01/22 04:44:12;;;;;;;12.30;5.60;;;;;;;-2.03;81.39;98451.58;109237;1276;22481;-57
2022/01/22 04:49:17;;;;;;;13.70;4.80;;;;;;;-2.05;81.02;98452.52;109102;1276;22559;-57
2022/01/22 04:57:19;;;;;;;7.90;3.90;;;;;;;-2.11;80.69;98460.99;109138;1277;22445;-56
2022/01/22 04:59:47;;;;;;;7.50;3.20;;;;;;;-2.12;80.63;98462.75;109101;1276;139628;-57
2022/01/22 05:02:15;;;;;;;3.80;2.30;;;;;;;-2.13;80.51;98457.04;109056;1276;23269;-57
2022/01/22 05:05:01;;;;;;;5.80;3.00;;;;;;;-2.18;80.43;98455.73;109096;1276;137808;-57
2022/01/22 05:07:52;;;;;;;7.80;3.50;;;;;;;-2.15;80.42;98460.20;109170;1276;22403;-56
2022/01/22 05:10:40;;;;;;;5.20;3.30;;;;;;;-2.15;80.29;98459.33;109066;1276;141239;-56
2022/01/22 05:13:08;;;;;;;6.50;2.70;;;;;;;-2.15;80.30;98458.84;109178;1276;22555;-56
2022/01/22 05:15:37;;;;;;;6.40;3.10;;;;;;;-2.17;80.20;98462.05;109078;1276;137270;-57
2022/01/22 05:18:07;;;;;;;8.40;3.60;;;;;;;-2.16;80.05;98461.36;109146;1277;25478;-57
2022/01/22 05:20:45;;;;;;;9.20;3.40;;;;;;;-2.16;80.08;98461.80;109168;1276;23074;-56
2022/01/22 05:23:21;;;;;;;8.40;4.00;;;;;;;-2.17;79.95;98460.70;109021;1276;137466;-57
2022/01/22 05:25:57;;;;;;;7.20;3.90;;;;;;;-2.18;79.78;98465.30;109139;1277;22629;-59
2022/01/22 05:29:02;;;;;;;7.90;3.80;;;;;;;-2.20;79.76;98474.58;109046;1277;139012;-59
2022/01/22 05:37:53;;;;;;;6.40;2.70;;;;;;;-2.27;79.63;98481.39;109157;1276;22497;-58
2022/01/22 05:40:21;;;;;;;7.30;3.40;;;;;;;-2.30;79.64;98479.66;109026;1277;140416;-64
2022/01/22 05:42:49;;;;;;;10.10;4.50;;;;;;;-2.28;79.49;98482.99;109160;1276;22462;-64
2022/01/22 05:45:17;;;;;;;12.40;4.70;;;;;;;-2.30;79.42;98487.66;109300;1276;23999;-64
2022/01/22 05:47:45;;;;;;;20.20;7.10;;;;;;;-2.31;79.52;98492.36;109179;1274;139050;-64
2022/01/22 05:50:26;;;;;;;14.50;5.30;;;;;;;-2.32;79.54;98497.54;109156;1277;23343;-64
2022/01/22 05:52:59;;;;;;;9.70;4.80;;;;;;;-2.37;79.30;98488.30;109045;1275;139289;-64
2022/01/22 06:01:09;;;;;;;11.30;5.00;;;;;;;-2.30;79.39;98509.09;109067;1277;23314;-63
2022/01/22 06:03:52;;;;;;;11.20;5.70;;;;;;;-2.30;79.26;98513.73;109003;1277;138471;-63
2022/01/22 06:06:20;;;;;;;20.30;7.70;;;;;;;-2.32;79.09;98512.75;109211;1277;23246;-63
2022/01/22 06:08:52;;;;;;;17.20;7.10;;;;;;;-2.34;79.12;98513.32;109155;1276;22594;-64
2022/01/22 06:11:25;;;;;;;16.50;5.80;;;;;;;-2.34;79.08;98517.63;109080;1276;138907;-64
2022/01/22 06:13:53;;;;;;;25.40;7.80;;;;;;;-2.35;79.04;98521.44;109063;1277;22569;-64
2022/01/22 06:16:34;;;;;;;19.20;6.00;;;;;;;-2.35;78.95;98520.41;108965;1277;138781;-63
2022/01/22 06:19:19;;;;;;;16.50;6.30;;;;;;;-2.33;79.19;98526.58;109218;1276;22474;-64
2022/01/22 06:21:50;;;;;;;14.00;6.60;;;;;;;-2.32;79.08;98529.63;109002;1277;138184;-64
2022/01/22 06:24:21;;;;;;;20.70;7.80;;;;;;;-2.31;79.01;98528.06;109156;1277;25039;-64
2022/01/22 06:26:50;;;;;;;21.20;7.60;;;;;;;-2.29;79.09;98531.13;109147;1277;22416;-64
2022/01/22 06:29:19;;;;;;;15.30;6.30;;;;;;;-2.30;79.12;98523.42;109038;1277;138329;-64
2022/01/22 06:31:47;;;;;;;21.40;6.90;;;;;;;-2.24;78.95;98533.29;109235;1275;22591;-64
2022/01/22 06:34:15;;;;;;;18.30;7.50;;;;;;;-2.24;78.81;98524.27;109073;1276;137772;-64
2022/01/22 06:36:43;;;;;;;21.40;9.70;;;;;;;-2.19;79.00;98529.25;109154;1276;23993;-64
2022/01/22 06:39:17;;;;;;;25.00;10.40;;;;;;;-2.16;78.88;98532.82;109024;1277;27651;-63
2022/01/22 06:42:17;;;;;;;20.20;9.30;;;;;;;-2.13;78.80;98534.67;104486;1277;24437;-63
2022/01/22 06:45:08;;;;;;;15.60;7.40;;;;;;;-2.10;78.73;98533.83;104658;1277;25655;-63
2022/01/22 06:47:39;;;;;;;20.00;8.40;;;;;;;-2.09;78.55;98536.83;104676;1277;137844;-63
2022/01/22 06:50:12;;;;;;;14.90;6.90;;;;;;;-2.11;78.58;98538.49;104831;1277;24258;-63
2022/01/22 06:53:16;;;;;;;19.80;8.20;;;;;;;-2.10;78.43;98538.34;104671;1274;137576;-63
2022/01/22 06:55:53;;;;;;;17.70;6.60;;;;;;;-2.09;78.50;98538.55;104796;1277;22656;-63
2022/01/22 06:58:26;;;;;;;8.80;4.00;;;;;;;-2.09;78.29;98540.35;109081;1276;138956;-64
2022/01/22 07:01:01;;;;;;;10.00;5.00;;;;;;;-2.09;78.30;98546.47;109189;1276;23571;-64
2022/01/22 07:03:35;;;;;;;16.10;5.70;;;;;;;-2.09;78.12;98543.23;109190;1276;22576;-66
2022/01/22 07:06:12;;;;;;;12.60;6.10;;;;;;;-2.10;77.74;98544.79;109067;1276;139715;-65
2022/01/22 07:08:41;;;;;;;16.10;6.10;;;;;;;-2.09;77.76;98554.02;109218;1275;22404;-64
2022/01/22 07:11:09;;;;;;;18.10;6.70;;;;;;;-2.11;77.87;98550.62;109063;1277;138980;-64
2022/01/22 07:13:40;;;;;;;31.60;9.00;;;;;;;-2.06;77.84;98555.48;109188;1277;23400;-64
2022/01/22 07:16:08;;;;;;;15.20;5.50;;;;;;;-2.04;77.58;98560.05;109048;1276;137683;-64
2022/01/22 07:18:39;;;;;;;29.60;8.60;;;;;;;-2.03;77.65;98564.57;109170;1276;22457;-62
2022/01/22 07:21:20;;;;;;;15.60;5.90;;;;;;;-2.02;77.74;98565.41;109113;1277;22473;-64
2022/01/22 07:26:25;;;;;;;19.90;7.90;;;;;;;-2.00;77.39;98570.30;109170;1276;22434;-64
2022/01/22 07:28:59;;;;;;;21.90;9.60;;;;;;;-1.98;77.65;98571.49;109055;1275;140061;-65
2022/01/22 07:31:27;;;;;;;18.50;8.50;;;;;;;-1.96;77.63;98570.27;109076;1277;23123;-63
2022/01/22 07:33:59;;;;;;;14.80;6.40;;;;;;;-1.95;77.64;98577.22;108980;1277;138922;-64
2022/01/22 07:36:27;;;;;;;14.50;5.80;;;;;;;-1.95;77.69;98576.08;109099;1277;22474;-64
2022/01/22 07:38:55;;;;;;;15.40;6.60;;;;;;;-1.93;77.74;98574.08;109127;1276;24896;-65
2022/01/22 07:41:23;;;;;;;10.00;4.60;;;;;;;-1.92;77.77;98575.77;109036;1276;138666;-59
2022/01/22 07:44:04;;;;;;;22.60;9.70;;;;;;;-1.90;78.03;98574.62;109086;1276;23660;-59
2022/01/22 07:46:46;;;;;;;20.40;8.50;;;;;;;-1.87;77.96;98576.54;108988;1276;142128;-60
2022/01/22 07:49:20;;;;;;;18.30;7.10;;;;;;;-1.84;78.10;98579.63;109111;1277;22459;-59
2022/01/22 07:51:53;;;;;;;18.40;7.60;;;;;;;-1.81;78.28;98581.57;109019;1277;23497;-59
2022/01/22 07:54:24;;;;;;;26.50;12.50;;;;;;;-1.80;78.14;98582.11;109090;1274;138300;-59
2022/01/22 07:56:52;;;;;;;13.40;7.50;;;;;;;-1.78;78.21;98582.73;109166;1277;23659;-59
2022/01/22 07:59:20;;;;;;;11.60;5.40;;;;;;;-1.76;77.92;98589.92;109094;1275;137731;-59
2022/01/22 08:01:51;;;;;;;14.30;5.90;;;;;;;-1.77;77.84;98591.94;109133;1276;23291;-59
2022/01/22 08:04:25;;;;;;;10.10;5.60;;;;;;;-1.76;77.50;98595.14;109151;1277;138508;-59
2022/01/22 08:06:58;;;;;;;11.30;5.50;;;;;;;-1.75;77.56;98598.48;109189;1275;23308;-59
2022/01/22 08:09:50;;;;;;;12.50;6.30;;;;;;;-1.75;77.58;98601.61;109263;1274;25445;-59
2022/01/22 08:12:18;;;;;;;14.60;6.60;;;;;;;-1.74;77.45;98602.34;109212;1274;138181;-59
2022/01/22 08:14:47;;;;;;;15.30;7.50;;;;;;;-1.72;77.52;98602.98;109152;1276;22471;-59
2022/01/22 08:17:15;;;;;;;10.90;5.80;;;;;;;-1.70;77.38;98605.58;109135;1274;139293;-59
2022/01/22 08:19:43;;;;;;;16.20;7.00;;;;;;;-1.67;77.21;98603.41;109176;1276;22478;-59
2022/01/22 08:22:41;;;;;;;11.60;5.50;;;;;;;-1.65;76.99;98601.77;109075;1276;138404;-59
2022/01/22 08:25:46;;;;;;;14.70;4.90;;;;;;;-1.63;77.13;98602.36;109101;1277;22466;-59
2022/01/22 08:29:09;;;;;;;11.80;4.80;;;;;;;-1.61;76.88;98614.16;109092;1277;138420;-58
2022/01/22 08:36:49;;;;;;;12.20;4.50;;;;;;;-1.54;76.47;98618.96;109175;1276;22493;-59
2022/01/22 08:39:18;;;;;;;11.20;4.20;;;;;;;-1.53;76.33;98620.61;108936;1275;22716;-59
2022/01/22 08:41:47;;;;;;;13.70;5.90;;;;;;;-1.51;76.46;98620.88;109123;1275;137487;-59
2022/01/22 08:44:15;;;;;;;15.40;6.60;;;;;;;-1.51;76.24;98622.48;109216;1275;23225;-59
2022/01/22 08:46:43;;;;;;;16.70;6.60;;;;;;;-1.49;76.23;98630.40;108986;1276;137738;-59
2022/01/22 08:49:11;;;;;;;12.80;6.30;;;;;;;-1.48;76.52;98630.74;109147;1277;22477;-59
2022/01/22 08:51:49;;;;;;;12.10;5.40;;;;;;;-1.47;76.50;98635.40;109198;1276;22429;-60
2022/01/22 08:54:17;;;;;;;9.10;4.60;;;;;;;-1.45;76.66;98633.80;109061;1276;139005;-59
2022/01/22 08:56:45;;;;;;;14.20;6.00;;;;;;;-1.44;76.61;98637.15;109165;1276;22554;-59
2022/01/22 08:59:14;;;;;;;7.90;3.70;;;;;;;-1.42;76.72;98634.14;109073;1277;138755;-59
2022/01/22 09:01:48;;;;;;;10.00;4.60;;;;;;;-1.36;76.70;98629.85;109147;1276;24449;-59
2022/01/22 09:04:31;;;;;;;9.70;4.60;;;;;;;-1.29;76.94;98632.86;109043;1276;139267;-59
2022/01/22 09:07:23;;;;;;;14.50;7.30;;;;;;;-1.21;77.00;98632.88;109253;1275;23554;-59
2022/01/22 09:10:26;;;;;;;13.10;4.60;;;;;;;-1.13;76.85;98635.66;108895;1276;22593;-59
2022/01/22 09:13:12;;;;;;;9.10;4.90;;;;;;;-1.07;76.69;98633.99;109233;1276;22441;-60
2022/01/22 09:15:51;;;;;;;9.80;4.10;;;;;;;-1.05;76.01;98635.55;109233;1276;22612;-59
2022/01/22 09:18:20;;;;;;;8.40;4.20;;;;;;;-1.05;76.04;98637.66;109088;1276;137910;-59
2022/01/22 09:23:17;;;;;;;9.30;4.60;;;;;;;-1.03;75.56;98637.45;109168;1276;137638;-59
2022/01/22 09:25:45;;;;;;;9.20;4.70;;;;;;;-1.01;75.70;98637.53;109160;1276;22468;-58
2022/01/22 09:28:14;;;;;;;8.80;4.60;;;;;;;-0.99;75.67;98635.66;109196;1275;22415;-58
2022/01/22 09:30:47;;;;;;;8.80;4.30;;;;;;;-0.98;75.49;98637.02;109044;1277;137468;-59
2022/01/22 09:33:16;;;;;;;16.00;5.40;;;;;;;-0.96;74.97;98636.04;109024;1277;23681;-59
2022/01/22 09:36:06;;;;;;;10.80;3.50;;;;;;;-0.94;75.00;98636.75;109049;1276;138745;-59
2022/01/22 09:38:49;;;;;;;7.50;3.80;;;;;;;-0.91;75.12;98637.61;109245;1275;22429;-59
2022/01/22 09:41:46;;;;;;;9.40;5.30;;;;;;;-0.88;74.83;98638.02;109007;1277;138305;-59
2022/01/22 09:44:34;;;;;;;17.80;8.70;;;;;;;-0.85;74.56;98641.58;109135;1276;23652;-59
2022/01/22 09:47:25;;;;;;;18.70;8.30;;;;;;;-0.86;74.22;98645.45;108979;1276;137725;-58
2022/01/22 09:50:23;;;;;;;10.40;5.00;;;;;;;-0.84;74.39;98647.64;109170;1276;22463;-58
2022/01/22 09:53:01;;;;;;;8.90;4.80;;;;;;;-0.81;74.37;98648.51;108975;1276;138114;-59
2022/01/22 09:55:58;;;;;;;13.00;5.80;;;;;;;-0.80;74.34;98652.24;108889;1276;22549;-59
2022/01/22 09:58:36;;;;;;;13.90;6.10;;;;;;;-0.80;74.50;98653.81;109176;1276;22556;-59
2022/01/22 10:01:33;;;;;;;11.10;5.50;;;;;;;-0.79;73.67;98657.10;109108;1276;137686;-59
2022/01/22 10:06:53;;;;;;;18.80;9.60;;;;;;;-0.76;74.15;98655.98;101379;1310;545249;-58
2022/01/22 10:09:46;;;;;;;16.20;8.20;;;;;;;-0.75;74.19;98654.40;103715;1290;25342;-58
2022/01/22 10:12:47;;;;;;;13.50;6.00;;;;;;;-0.70;73.84;98654.87;103590;1290;138122;-59
2022/01/22 10:15:35;;;;;;;11.90;5.40;;;;;;;-0.67;73.63;98656.06;103651;1291;22576;-58
2022/01/22 10:18:09;;;;;;;11.50;6.20;;;;;;;-0.66;73.78;98660.02;107938;1289;137949;-58
2022/01/22 10:20:39;;;;;;;11.40;5.30;;;;;;;-0.63;73.40;98661.75;108058;1286;121112;-59
2022/01/22 10:23:38;;;;;;;9.00;4.50;;;;;;;-0.60;73.36;98662.16;108210;1286;139137;-59
2022/01/22 10:26:12;;;;;;;9.80;4.10;;;;;;;-0.55;72.93;98665.39;108405;1285;22535;-58
2022/01/22 10:28:46;;;;;;;9.00;4.40;;;;;;;-0.51;72.92;98660.33;108407;1286;22513;-59
2022/01/22 10:31:21;;;;;;;13.70;5.80;;;;;;;-0.47;72.67;98660.58;108271;1284;137043;-60
2022/01/22 10:34:31;;;;;;;7.80;4.00;;;;;;;-0.44;72.61;98651.46;108381;1284;22710;-59
2022/01/22 10:37:27;;;;;;;10.50;5.20;;;;;;;-0.41;72.25;98652.97;108158;1286;137200;-58
2022/01/22 10:40:16;;;;;;;11.50;4.70;;;;;;;-0.42;72.14;98652.03;108265;1286;22448;-59
2022/01/22 10:42:44;;;;;;;12.40;4.70;;;;;;;-0.41;72.00;98647.66;108191;1285;137487;-59
2022/01/22 10:45:19;;;;;;;8.30;4.40;;;;;;;-0.41;72.30;98649.72;108348;1285;22480;-58
2022/01/22 10:47:47;;;;;;;11.60;5.30;;;;;;;-0.40;72.11;98657.91;108233;1286;137523;-58
2022/01/22 10:50:24;;;;;;;10.00;5.30;;;;;;;-0.42;72.65;98662.36;108331;1285;22554;-58
2022/01/22 10:52:53;;;;;;;11.10;4.80;;;;;;;-0.45;73.21;98662.42;108383;1286;22454;-58
2022/01/22 10:55:21;;;;;;;12.40;5.20;;;;;;;-0.51;74.04;98665.47;108245;1286;137906;-59
2022/01/22 10:58:07;;;;;;;10.40;5.10;;;;;;;-0.56;74.70;98670.61;108327;1286;22521;-58
2022/01/22 11:00:35;;;;;;;11.20;5.30;;;;;;;-0.63;75.05;98671.66;108197;1285;138061;-59
2022/01/22 11:03:22;;;;;;;17.60;6.30;;;;;;;-0.65;75.82;98673.46;108239;1287;22567;-58
2022/01/22 11:05:50;;;;;;;9.90;4.50;;;;;;;-0.66;75.86;98663.23;108212;1285;139173;-58
2022/01/22 11:08:23;;;;;;;7.90;4.30;;;;;;;-0.65;75.64;98663.92;108250;1286;22443;-59
2022/01/22 11:11:01;;;;;;;12.50;5.00;;;;;;;-0.63;75.49;98663.64;108198;1285;137446;-59
2022/01/22 11:13:30;;;;;;;12.80;5.80;;;;;;;-0.60;75.77;98662.98;108251;1286;23152;-58
2022/01/22 11:15:57;;;;;;;13.40;5.50;;;;;;;-0.59;75.47;98665.31;108287;1286;22539;-59
2022/01/22 11:18:25;;;;;;;9.70;4.50;;;;;;;-0.53;75.72;98669.13;107982;1287;137371;-58
2022/01/22 11:20:53;;;;;;;9.80;5.30;;;;;;;-0.50;75.34;98668.14;108143;1286;23350;-59
2022/01/22 11:23:21;;;;;;;13.40;5.90;;;;;;;-0.47;75.49;98674.16;108088;1287;137474;-58
2022/01/22 11:25:50;;;;;;;13.70;7.40;;;;;;;-0.45;75.34;98673.91;108290;1286;22425;-58
2022/01/22 11:28:19;;;;;;;14.00;6.20;;;;;;;-0.44;75.29;98675.02;107975;1286;22737;-59
2022/01/22 11:30:47;;;;;;;11.30;5.20;;;;;;;-0.45;75.42;98673.25;107913;1286;137433;-58
2022/01/22 11:33:17;;;;;;;10.80;5.50;;;;;;;-0.52;75.39;98674.08;108322;1286;22524;-59
2022/01/22 11:36:04;;;;;;;11.20;4.80;;;;;;;-0.55;75.78;98677.33;108213;1285;138184;-59
2022/01/22 11:38:34;;;;;;;;;;;;;;;-0.56;75.91;98675.06;108131;1286;22497;-59
2022/01/22 11:41:22;;;;;;;11.50;5.10;;;;;;;-0.61;76.23;98669.34;108206;1286;124543;-64
2022/01/22 11:44:03;;;;;;;9.60;5.10;;;;;;;-0.57;76.67;98675.06;108284;1286;22590;-64
2022/01/22 11:46:51;;;;;;;14.70;5.50;;;;;;;-0.58;76.78;98674.80;108281;1286;22553;-64
2022/01/22 11:49:25;;;;;;;;;;;;;;;-0.57;77.11;98678.68;108215;1286;137816;-63
2022/01/22 11:51:54;;;;;;;12.10;5.80;;;;;;;-0.56;77.29;98682.67;108278;1285;22529;-64
2022/01/22 11:54:22;;;;;;;13.80;6.10;;;;;;;-0.56;77.45;98685.55;108218;1286;137576;-63
2022/01/22 11:56:54;;;;;;;18.60;7.60;;;;;;;-0.57;77.32;98686.25;108292;1286;23355;-63
2022/01/22 11:59:23;;;;;;;15.50;7.90;;;;;;;-0.56;77.71;98692.10;108220;1286;137469;-63
2022/01/22 12:01:56;;;;;;;16.30;8.00;;;;;;;-0.55;77.99;98693.74;108256;1286;24461;-64
2022/01/22 12:04:40;;;;;;;12.70;7.80;;;;;;;-0.54;78.05;98703.26;108214;1286;22602;-64
2022/01/22 12:07:07;;;;;;;13.20;6.20;;;;;;;-0.52;77.98;98703.09;108170;1285;137107;-64
2022/01/22 12:10:22;;;;;;;15.00;6.70;;;;;;;-0.52;77.93;98706.30;108317;1285;23690;-63
2022/01/22 12:15:40;;;;;;;10.40;5.40;;;;;;;-0.51;78.17;98705.94;108637;1282;22544;-65
2022/01/22 12:18:12;;;;;;;15.30;7.50;;;;;;;-0.50;78.15;98709.15;108518;1282;138176;-63
2022/01/22 12:23:32;;;;;;;13.30;6.20;;;;;;;-0.49;78.16;98718.65;107961;1284;138579;-65
2022/01/22 12:26:01;;;;;;;12.10;6.50;;;;;;;-0.50;77.92;98724.99;108543;1283;23543;-65
2022/01/22 12:28:44;;;;;;;14.70;7.70;;;;;;;-0.48;78.27;98731.17;108528;1283;23367;-65
2022/01/22 12:31:18;;;;;;;11.20;5.80;;;;;;;-0.51;78.04;98748.17;108328;1284;137501;-64
2022/01/22 12:33:53;;;;;;;7.80;3.30;;;;;;;-0.61;78.41;98757.30;108403;1284;22445;-65
2022/01/22 12:36:25;;;;;;;10.30;3.50;;;;;;;-0.92;79.40;98754.71;108418;1283;138463;-65
2022/01/22 12:39:28;;;;;;;8.20;3.50;;;;;;;-1.31;79.64;98759.02;108458;1284;23204;-64
2022/01/22 12:41:57;;;;;;;27.30;9.20;;;;;;;-1.64;79.85;98770.59;108477;1283;139649;-58
2022/01/22 12:44:40;;;;;;;5.70;2.60;;;;;;;-1.88;80.08;98773.31;108618;1282;22471;-58
2022/01/22 12:47:11;;;;;;;9.80;3.10;;;;;;;-2.09;80.67;98776.38;108467;1282;138907;-58
2022/01/22 12:49:39;;;;;;;8.40;2.90;;;;;;;-2.23;81.30;98779.36;108199;1283;23170;-58
2022/01/22 12:52:15;;;;;;;7.00;2.80;;;;;;;-2.34;81.46;98785.06;108569;1281;22479;-58
2022/01/22 12:54:46;;;;;;;9.10;3.80;;;;;;;-2.42;81.49;98788.93;108236;1283;138003;-59
2022/01/22 12:57:20;;;;;;;5.00;2.50;;;;;;;-2.48;81.69;98796.62;109303;1274;22441;-59
2022/01/22 13:00:07;;;;;;;55.80;16.30;;;;;;;-2.53;81.98;98793.83;108973;1277;138824;-58
2022/01/22 13:02:56;;;;;;;139.20;47.10;;;;;;;-2.57;82.15;98798.45;109239;1275;22495;-59
2022/01/22 13:05:26;;;;;;;46.50;18.40;;;;;;;-2.62;82.45;98797.94;108858;1276;138775;-58
2022/01/22 13:08:14;;;;;;;60.30;21.50;;;;;;;-2.57;82.73;98800.41;109112;1276;23259;-59
2022/01/22 13:11:07;;;;;;;19.60;8.80;;;;;;;-2.49;82.99;98804.98;108873;1274;138753;-59
2022/01/22 13:13:37;;;;;;;46.30;26.20;;;;;;;-2.43;83.29;98806.81;109353;1274;22492;-58
2022/01/22 13:16:10;;;;;;;17.90;8.60;;;;;;;-2.37;83.16;98811.10;109315;1274;23168;-58
2022/01/22 13:18:43;;;;;;;26.20;13.00;;;;;;;-2.34;83.28;98812.94;109219;1274;138904;-60
2022/01/22 13:21:12;;;;;;;36.30;17.80;;;;;;;-2.28;83.33;98819.37;109265;1275;22608;-59
2022/01/22 13:23:40;;;;;;;265.80;59.10;;;;;;;-2.27;83.25;98821.15;109135;1276;138045;-59